Time;durP1;ratioP1;P1;durP2;ratioP2;P2;SDS_P1;SDS_P2;PMS_P1;PMS_P2;Temp;Humidity;BMP_temperature;BMP_pressure;BME280_temperature;BME280_humidity;BME280_pressure;Samples;Min_cycle;Max_cycle;Signal;HPM_P1;HPM_P2
2021/08/06 00:01:25;;;;;;;7.77;7.17;;;;;;;18.71;67.77;100249.94;5077570;28;20835;-69
2021/08/06 00:03:51;;;;;;;7.70;7.10;;;;;;;18.58;68.33;100241.56;5077960;28;20542;-68
2021/08/06 00:06:16;;;;;;;7.97;7.20;;;;;;;18.72;68.05;100246.41;5077469;28;20196;-69
2021/08/06 00:08:41;;;;;;;8.23;7.50;;;;;;;17.90;71.25;100243.56;5077473;28;20256;-69
2021/08/06 00:11:08;;;;;;;8.60;7.80;;;;;;;18.32;69.64;100239.72;5061440;28;20186;-69
2021/08/06 00:13:34;;;;;;;8.50;7.80;;;;;;;18.51;69.18;100243.53;5080052;28;20189;-70
2021/08/06 00:15:59;;;;;;;8.90;8.10;;;;;;;18.37;70.16;100242.22;5080613;28;20487;-69
2021/08/06 00:18:24;;;;;;;9.07;8.27;;;;;;;18.72;68.47;100237.63;5074953;28;20637;-69
2021/08/06 00:20:51;;;;;;;8.60;7.90;;;;;;;18.41;69.51;100234.16;5080157;28;20201;-68
2021/08/06 00:23:16;;;;;;;8.93;8.10;;;;;;;18.70;68.91;100240.31;5080583;28;20213;-69
2021/08/06 00:25:41;;;;;;;9.50;8.70;;;;;;;18.81;68.67;100232.91;5081375;28;20421;-69
2021/08/06 00:28:07;;;;;;;10.53;9.20;;;;;;;18.46;69.85;100239.31;5075154;28;20473;-69
2021/08/06 00:30:32;;;;;;;10.40;9.50;;;;;;;18.50;70.02;100222.47;5078979;28;20615;-68
2021/08/06 00:32:58;;;;;;;10.17;9.37;;;;;;;18.27;70.95;100223.19;5081119;28;20165;-70
2021/08/06 00:35:23;;;;;;;10.17;9.33;;;;;;;18.87;68.71;100225.69;5075969;28;20222;-69
2021/08/06 00:37:48;;;;;;;11.27;10.30;;;;;;;18.41;70.47;100231.53;5072800;28;20223;-70
2021/08/06 00:40:14;;;;;;;11.20;10.20;;;;;;;18.35;70.72;100223.81;5061163;28;20400;-69
2021/08/06 00:42:39;;;;;;;11.70;10.70;;;;;;;17.93;72.22;100229.47;5060559;28;20176;-70
2021/08/06 00:45:06;;;;;;;11.40;10.47;;;;;;;18.10;71.60;100229.81;5060243;28;20185;-69
2021/08/06 00:47:33;;;;;;;11.90;10.87;;;;;;;18.05;71.98;100231.75;5060702;28;20575;-69
2021/08/06 00:49:58;;;;;;;11.10;10.10;;;;;;;17.43;74.07;100228.16;5060644;28;20459;-69
2021/08/06 00:52:24;;;;;;;12.20;9.70;;;;;;;17.37;74.15;100230.94;5060574;28;20734;-68
2021/08/06 00:54:50;;;;;;;9.87;8.97;;;;;;;17.16;75.39;100230.63;5060691;28;20223;-68
2021/08/06 00:57:16;;;;;;;9.97;9.17;;;;;;;17.27;75.35;100222.44;5059671;28;20180;-69
2021/08/06 00:59:41;;;;;;;10.27;9.27;;;;;;;17.68;72.94;100220.47;5060373;28;20645;-69
2021/08/06 01:02:26;;;;;;;9.60;8.80;;;;;;;17.25;74.52;100219.00;5060527;28;20412;-69
2021/08/06 01:05:11;;;;;;;9.80;9.00;;;;;;;17.67;73.02;100218.72;5059440;28;20551;-69
2021/08/06 01:07:51;;;;;;;10.90;9.90;;;;;;;17.48;72.16;100221.00;5047156;28;20465;-69
2021/08/06 01:10:21;;;;;;;9.77;8.97;;;;;;;17.10;73.41;100220.25;5076846;28;20517;-68
2021/08/06 01:12:54;;;;;;;10.27;9.43;;;;;;;17.54;72.88;100212.06;5079239;28;20451;-69
2021/08/06 01:15:20;;;;;;;9.67;8.80;;;;;;;17.93;71.29;100211.00;5080073;28;20396;-69
2021/08/06 01:17:46;;;;;;;10.40;9.50;;;;;;;17.28;73.06;100211.00;5072913;28;20451;-69
2021/08/06 01:20:24;;;;;;;9.87;9.07;;;;;;;17.76;71.84;100220.22;5059713;28;20401;-69
2021/08/06 01:23:21;;;;;;;9.33;8.53;;;;;;;17.93;71.04;100209.22;5058960;28;20609;-69
2021/08/06 01:26:00;;;;;;;9.70;8.90;;;;;;;17.62;71.48;100211.84;5051488;28;20524;-69
2021/08/06 01:28:30;;;;;;;8.90;8.20;;;;;;;17.83;71.34;100215.63;5059980;28;20825;-69
2021/08/06 01:30:56;;;;;;;10.03;9.23;;;;;;;18.11;70.58;100213.09;5059696;28;20825;-69
2021/08/06 01:33:22;;;;;;;9.37;8.30;;;;;;;18.30;69.73;100209.88;5059637;28;20394;-69
2021/08/06 01:35:47;;;;;;;10.13;9.33;;;;;;;18.06;70.51;100211.50;5059810;28;20410;-69
2021/08/06 01:38:14;;;;;;;9.97;9.17;;;;;;;18.21;70.20;100212.81;5059956;28;20489;-70
2021/08/06 01:41:07;;;;;;;9.30;8.60;;;;;;;18.44;69.20;100217.38;5059643;28;20252;-69
2021/08/06 01:43:58;;;;;;;9.77;8.97;;;;;;;18.36;69.34;100225.53;5059474;28;20396;-69
2021/08/06 01:46:58;;;;;;;11.37;10.40;;;;;;;18.00;70.68;100237.13;5061762;28;20507;-70
2021/08/06 01:49:31;;;;;;;9.97;9.07;;;;;;;18.02;71.21;100237.09;5068737;28;20464;-69
2021/08/06 01:52:09;;;;;;;10.37;9.57;;;;;;;17.77;72.51;100235.13;5058605;28;20542;-69
2021/08/06 01:54:36;;;;;;;10.60;9.67;;;;;;;18.15;70.90;100227.91;5059064;28;20501;-69
2021/08/06 01:57:03;;;;;;;11.60;10.60;;;;;;;17.48;73.24;100222.75;5064292;28;20430;-69
2021/08/06 01:59:29;;;;;;;11.90;10.70;;;;;;;17.61;73.19;100210.97;5079037;28;20423;-69
2021/08/06 02:01:55;;;;;;;11.77;10.67;;;;;;;18.00;71.38;100210.75;5079712;28;20422;-68
2021/08/06 02:04:22;;;;;;;12.10;10.20;;;;;;;17.79;71.91;100212.25;5078731;28;20506;-69
2021/08/06 02:06:48;;;;;;;11.80;10.70;;;;;;;17.62;72.22;100217.97;5074024;28;20426;-70
2021/08/06 02:09:17;;;;;;;10.97;10.07;;;;;;;17.85;71.50;100219.97;5059169;28;20426;-69
2021/08/06 02:11:44;;;;;;;11.63;10.57;;;;;;;18.20;70.12;100217.22;5058956;28;20256;-70
2021/08/06 02:14:14;;;;;;;14.80;10.70;;;;;;;17.81;71.16;100223.59;5058606;28;20397;-69
2021/08/06 02:16:41;;;;;;;11.77;10.60;;;;;;;17.89;71.37;100219.84;5060795;28;20427;-69
2021/08/06 02:19:06;;;;;;;11.70;10.57;;;;;;;17.76;71.13;100222.00;5078498;28;20708;-70
2021/08/06 02:21:33;;;;;;;12.10;10.90;;;;;;;17.63;72.50;100221.47;5079621;28;20470;-70
2021/08/06 02:24:06;;;;;;;12.77;11.47;;;;;;;17.52;73.14;100213.84;5058543;28;20293;-71
2021/08/06 02:26:35;;;;;;;11.37;10.37;;;;;;;17.73;72.67;100215.03;5058186;28;20501;-68
2021/08/06 02:29:03;;;;;;;11.73;10.47;;;;;;;17.48;72.97;100218.38;5058566;28;20435;-69
2021/08/06 02:31:29;;;;;;;12.00;10.63;;;;;;;17.41;73.62;100227.31;5058380;28;20420;-69
2021/08/06 02:33:54;;;;;;;11.43;10.53;;;;;;;17.14;74.32;100221.91;5058044;28;20596;-70
2021/08/06 02:36:22;;;;;;;10.83;9.60;;;;;;;17.45;73.96;100223.69;5057842;28;20189;-69
2021/08/06 02:38:47;;;;;;;10.43;9.43;;;;;;;17.67;72.53;100225.75;5077954;28;20192;-70
2021/08/06 02:41:12;;;;;;;10.60;9.60;;;;;;;17.50;73.37;100226.22;5078941;28;20386;-69
2021/08/06 02:43:39;;;;;;;10.70;9.80;;;;;;;17.59;73.38;100231.25;5077625;28;20575;-69
2021/08/06 02:46:05;;;;;;;10.90;9.90;;;;;;;17.36;74.19;100228.38;5078292;28;20204;-70
2021/08/06 02:48:30;;;;;;;11.53;10.37;;;;;;;17.16;75.07;100224.50;5061231;28;20447;-69
2021/08/06 02:50:55;;;;;;;11.50;10.60;;;;;;;17.49;73.35;100227.13;5058989;28;20592;-70
2021/08/06 02:53:21;;;;;;;11.57;10.57;;;;;;;16.97;75.37;100216.22;5060731;28;20171;-69
2021/08/06 02:55:46;;;;;;;11.43;10.43;;;;;;;17.53;73.85;100214.75;5067271;28;20214;-69
2021/08/06 02:58:11;;;;;;;11.40;10.40;;;;;;;16.90;75.98;100217.25;5063606;28;20197;-70
2021/08/06 03:00:37;;;;;;;10.40;9.60;;;;;;;17.30;74.80;100210.94;5058150;28;20181;-69
2021/08/06 03:03:02;;;;;;;11.30;10.23;;;;;;;17.34;74.16;100199.44;5058608;28;20225;-71
2021/08/06 03:05:27;;;;;;;11.70;10.60;;;;;;;16.89;76.70;100197.06;5057626;28;20165;-69
2021/08/06 03:07:53;;;;;;;10.93;10.07;;;;;;;17.89;72.90;100190.84;5069030;28;20590;-69
2021/08/06 03:10:19;;;;;;;11.97;10.97;;;;;;;17.55;73.43;100192.72;5078664;28;20180;-69
2021/08/06 03:12:48;;;;;;;11.40;10.40;;;;;;;17.55;73.52;100194.47;5078109;28;20522;-69
2021/08/06 03:15:15;;;;;;;11.80;10.80;;;;;;;17.73;72.92;100201.00;5077960;28;20903;-69
2021/08/06 03:17:41;;;;;;;11.10;10.30;;;;;;;17.98;72.25;100195.88;5068876;28;20455;-69
2021/08/06 03:20:10;;;;;;;11.63;10.77;;;;;;;17.55;73.42;100189.19;5058038;28;20442;-69
2021/08/06 03:22:37;;;;;;;10.63;9.73;;;;;;;17.30;74.46;100188.09;5057077;28;20447;-70
2021/08/06 03:25:04;;;;;;;11.93;10.90;;;;;;;17.51;73.75;100180.53;5058366;28;20413;-70
2021/08/06 03:27:31;;;;;;;11.10;10.10;;;;;;;17.37;73.47;100185.31;5057274;28;20468;-70
2021/08/06 03:29:56;;;;;;;11.17;10.17;;;;;;;17.54;73.17;100174.31;5057851;28;20516;-69
2021/08/06 03:32:21;;;;;;;11.93;10.80;;;;;;;17.68;72.53;100180.03;5058289;28;20700;-69
2021/08/06 03:34:47;;;;;;;11.27;10.37;;;;;;;17.78;72.24;100184.13;5057550;28;20173;-69
2021/08/06 03:37:12;;;;;;;11.63;10.53;;;;;;;17.72;72.50;100181.66;5058078;28;20456;-69
2021/08/06 03:39:37;;;;;;;11.80;10.80;;;;;;;17.61;73.01;100167.94;5058464;28;20201;-69
2021/08/06 03:42:03;;;;;;;14.00;12.70;;;;;;;17.10;74.74;100164.94;5057576;28;20174;-69
2021/08/06 03:44:28;;;;;;;12.73;11.43;;;;;;;17.55;73.46;100169.00;5057605;28;20304;-70
2021/08/06 03:46:53;;;;;;;12.40;11.40;;;;;;;18.03;71.37;100164.97;5059770;28;20221;-70
2021/08/06 03:49:19;;;;;;;12.83;11.70;;;;;;;17.67;72.40;100170.38;5081504;28;20184;-69
2021/08/06 03:51:44;;;;;;;12.30;11.30;;;;;;;17.60;72.46;100168.84;5081516;28;20176;-69
2021/08/06 03:54:09;;;;;;;11.17;10.27;;;;;;;17.53;73.12;100169.94;5081813;28;20214;-69
2021/08/06 03:56:35;;;;;;;11.47;10.57;;;;;;;17.38;73.62;100164.19;5081445;28;20197;-69
2021/08/06 03:59:00;;;;;;;11.37;10.47;;;;;;;17.21;74.11;100163.78;5062082;28;20459;-69
2021/08/06 04:01:25;;;;;;;13.37;12.17;;;;;;;17.61;72.87;100167.94;5061949;28;20166;-69
2021/08/06 04:03:50;;;;;;;12.40;11.40;;;;;;;17.78;71.97;100170.06;5061128;28;20178;-70
2021/08/06 04:06:16;;;;;;;13.40;12.20;;;;;;;17.74;71.96;100169.31;5061263;28;20507;-69
2021/08/06 04:08:41;;;;;;;13.17;12.00;;;;;;;17.00;75.10;100163.44;5077320;28;20196;-69
2021/08/06 04:11:06;;;;;;;12.90;11.80;;;;;;;17.24;74.29;100168.94;5081365;28;20165;-69
2021/08/06 04:13:32;;;;;;;12.83;11.73;;;;;;;17.51;73.22;100170.00;5081112;28;20180;-70
2021/08/06 04:15:57;;;;;;;13.40;12.20;;;;;;;17.84;71.71;100164.63;5081597;28;20537;-71
2021/08/06 04:18:23;;;;;;;13.87;12.67;;;;;;;17.80;72.02;100160.38;5067793;28;20189;-69
2021/08/06 04:20:48;;;;;;;13.30;12.20;;;;;;;17.26;73.01;100162.75;5061117;28;20173;-69
2021/08/06 04:23:14;;;;;;;14.10;13.00;;;;;;;17.39;73.78;100158.00;5070584;28;20485;-70
2021/08/06 04:25:39;;;;;;;14.10;12.90;;;;;;;17.73;72.40;100151.78;5082702;28;20180;-69
2021/08/06 04:28:06;;;;;;;13.67;12.37;;;;;;;18.06;70.55;100138.50;5080608;28;20216;-69
2021/08/06 04:30:32;;;;;;;12.40;11.30;;;;;;;18.48;68.46;100132.78;5078404;28;20192;-69
2021/08/06 04:32:57;;;;;;;11.50;10.60;;;;;;;19.66;64.68;100131.31;5060120;28;20444;-69
2021/08/06 04:35:22;;;;;;;15.00;10.63;;;;;;;18.52;68.42;100126.47;5061397;28;20173;-70
2021/08/06 04:37:53;;;;;;;11.73;10.70;;;;;;;18.94;66.00;100126.88;5060747;28;20185;-68
2021/08/06 04:40:19;;;;;;;11.37;10.33;;;;;;;20.92;60.75;100124.53;5063938;28;20182;-70
2021/08/06 04:42:44;;;;;;;12.43;11.23;;;;;;;19.55;64.40;100122.94;5060861;28;20412;-70
2021/08/06 04:45:10;;;;;;;12.53;11.23;;;;;;;21.64;58.76;100123.16;5060006;28;20173;-69
2021/08/06 04:47:36;;;;;;;11.40;10.30;;;;;;;21.52;57.83;100125.38;5060669;28;20602;-69
2021/08/06 04:50:02;;;;;;;11.43;10.53;;;;;;;21.92;56.81;100112.09;5061382;28;20410;-69
2021/08/06 04:52:27;;;;;;;11.57;10.53;;;;;;;21.19;58.96;100119.84;5061173;28;20188;-70
2021/08/06 04:54:52;;;;;;;10.80;9.80;;;;;;;22.27;55.72;100119.28;5060164;28;20412;-69
2021/08/06 04:57:18;;;;;;;11.37;10.47;;;;;;;20.74;60.38;100121.75;5060276;28;20223;-70
2021/08/06 04:59:43;;;;;;;11.93;11.03;;;;;;;;;;5059333;28;20181;-69
2021/08/06 05:02:08;;;;;;;12.20;11.10;;;;;;;20.26;61.27;100117.56;5060203;28;20442;-70
2021/08/06 05:04:34;;;;;;;12.43;11.17;;;;;;;20.12;61.15;100113.69;5063922;28;20165;-69
2021/08/06 05:06:59;;;;;;;11.90;10.90;;;;;;;21.45;57.98;100116.00;5079951;28;20563;-69
2021/08/06 05:09:24;;;;;;;11.80;10.80;;;;;;;21.19;58.73;100111.91;5079846;28;20184;-68
2021/08/06 05:11:49;;;;;;;12.33;11.07;;;;;;;22.70;54.14;100098.56;5080325;28;20193;-71
2021/08/06 05:14:15;;;;;;;11.00;10.10;;;;;;;23.17;51.63;100105.88;5061050;28;20551;-69
2021/08/06 05:16:40;;;;;;;13.40;11.47;;;;;;;22.84;53.42;100101.38;5060048;28;20169;-69
2021/08/06 05:19:05;;;;;;;13.43;12.23;;;;;;;19.85;61.75;100113.84;5060220;28;20256;-69
2021/08/06 05:21:31;;;;;;;13.80;12.63;;;;;;;19.48;63.47;100107.31;5059582;28;20223;-69
2021/08/06 05:23:57;;;;;;;13.90;12.70;;;;;;;19.68;62.99;100110.97;5059477;28;20287;-70
2021/08/06 05:26:22;;;;;;;14.33;13.10;;;;;;;19.18;64.42;100111.94;5060115;28;20440;-70
2021/08/06 05:28:47;;;;;;;14.53;13.20;;;;;;;20.41;60.56;100113.44;5059607;28;20200;-70
2021/08/06 05:31:13;;;;;;;13.87;12.67;;;;;;;22.33;54.75;100097.75;5069693;28;20185;-68
2021/08/06 05:33:38;;;;;;;13.13;12.00;;;;;;;21.93;55.52;100103.19;5079270;28;20208;-70
2021/08/06 05:36:04;;;;;;;11.60;10.63;;;;;;;21.66;56.39;100094.75;5063796;28;20193;-69
2021/08/06 05:38:29;;;;;;;10.10;9.30;;;;;;;22.49;52.82;100093.41;5061133;28;20172;-69
2021/08/06 05:40:54;;;;;;;10.53;9.63;;;;;;;23.73;50.20;100088.72;5059639;28;20205;-70
2021/08/06 05:43:19;;;;;;;9.87;9.07;;;;;;;22.57;53.00;100087.72;5059196;28;20211;-70
2021/08/06 05:45:45;;;;;;;8.80;8.17;;;;;;;23.83;49.43;100076.63;5059220;28;20188;-69
2021/08/06 05:48:13;;;;;;;9.33;8.33;;;;;;;24.35;48.17;100070.97;5067212;28;20206;-69
2021/08/06 05:50:41;;;;;;;8.93;8.23;;;;;;;22.38;52.67;100087.78;5064496;28;20199;-70
2021/08/06 05:53:06;;;;;;;7.83;7.23;;;;;;;23.38;49.92;100082.59;5059800;28;20535;-69
2021/08/06 05:55:31;;;;;;;7.60;6.90;;;;;;;23.72;49.23;100079.91;5059193;28;20718;-69
2021/08/06 05:57:57;;;;;;;8.13;7.40;;;;;;;22.19;53.00;100093.97;5076447;28;20180;-70
2021/08/06 06:00:23;;;;;;;7.40;6.83;;;;;;;23.64;49.82;100084.78;5062682;28;20192;-68
2021/08/06 06:02:48;;;;;;;7.90;7.17;;;;;;;24.89;46.37;100082.94;5060412;28;20488;-68
2021/08/06 06:05:13;;;;;;;6.60;6.10;;;;;;;22.31;52.22;100104.91;5060218;28;20180;-69
2021/08/06 06:07:47;;;;;;;7.20;6.60;;;;;;;22.91;50.26;100090.41;5077964;28;20207;-69
2021/08/06 06:10:12;;;;;;;7.60;7.10;;;;;;;23.62;49.85;100092.84;5074256;28;20187;-71
2021/08/06 06:12:39;;;;;;;6.20;5.70;;;;;;;24.02;48.17;100087.13;5060230;28;20448;-69
2021/08/06 06:15:06;;;;;;;6.73;6.13;;;;;;;26.02;44.56;100081.22;5071969;28;20188;-69
2021/08/06 06:17:31;;;;;;;5.73;5.30;;;;;;;25.82;44.14;100077.22;5078812;28;20704;-68
2021/08/06 06:19:56;;;;;;;5.90;5.40;;;;;;;25.79;43.98;100080.94;5062818;28;20448;-68
2021/08/06 06:22:22;;;;;;;6.40;5.90;;;;;;;26.21;43.18;100081.75;5062540;28;20169;-69
2021/08/06 06:24:47;;;;;;;6.90;6.40;;;;;;;24.67;47.16;100076.25;5076515;28;20235;-68
2021/08/06 06:27:13;;;;;;;6.80;6.30;;;;;;;23.37;50.01;100078.22;5060641;28;20246;-70
2021/08/06 06:29:38;;;;;;;6.90;6.20;;;;;;;25.26;45.96;100082.47;5069886;28;20185;-70
2021/08/06 06:32:04;;;;;;;6.10;5.70;;;;;;;25.01;45.78;100070.69;5069920;28;20571;-70
2021/08/06 06:34:29;;;;;;;6.40;5.73;;;;;;;26.02;43.44;100063.44;5060265;28;20191;-70
2021/08/06 06:36:55;;;;;;;6.00;5.47;;;;;;;26.10;43.62;100070.06;5060571;28;20539;-72
2021/08/06 06:39:20;;;;;;;6.20;5.80;;;;;;;23.84;48.72;100081.88;5070494;28;20177;-74
2021/08/06 06:41:45;;;;;;;6.17;5.70;;;;;;;24.55;46.02;100077.78;5078098;28;20215;-71
2021/08/06 06:44:10;;;;;;;5.83;5.43;;;;;;;24.74;46.46;100076.72;5075465;28;20254;-72
2021/08/06 06:46:36;;;;;;;5.93;5.53;;;;;;;25.47;45.10;100078.50;5075607;28;20211;-70
2021/08/06 06:49:02;;;;;;;6.67;6.03;;;;;;;24.12;47.61;100077.66;5067165;28;20168;-72
2021/08/06 06:51:27;;;;;;;6.00;5.60;;;;;;;25.62;44.50;100075.81;5077441;28;20196;-72
2021/08/06 06:53:52;;;;;;;6.53;6.03;;;;;;;25.02;46.23;100078.56;5078034;28;20169;-72
2021/08/06 06:56:17;;;;;;;5.40;5.00;;;;;;;25.77;43.60;100081.97;5077887;28;20173;-72
2021/08/06 06:58:43;;;;;;;6.13;5.73;;;;;;;26.36;42.41;100071.03;5057800;28;20196;-72
2021/08/06 07:01:08;;;;;;;6.00;5.50;;;;;;;26.52;42.76;100062.78;5087295;28;20188;-72
2021/08/06 07:03:33;;;;;;;6.60;6.00;;;;;;;25.52;45.03;100064.88;5068446;28;20498;-70
2021/08/06 07:05:59;;;;;;;6.10;5.50;;;;;;;26.03;43.47;100075.84;5057665;28;20185;-70
2021/08/06 07:08:24;;;;;;;6.10;5.70;;;;;;;27.69;40.58;100059.97;5059046;28;20606;-71
2021/08/06 07:10:49;;;;;;;6.33;5.83;;;;;;;28.31;38.50;100055.44;5056916;28;20236;-72
2021/08/06 07:13:15;;;;;;;6.20;5.60;;;;;;;26.01;42.90;100064.34;5066385;28;20512;-70
2021/08/06 07:15:40;;;;;;;5.37;4.97;;;;;;;26.39;42.79;100063.63;5075138;28;20185;-72
2021/08/06 07:18:06;;;;;;;5.83;5.43;;;;;;;26.54;42.19;100058.22;5090327;28;20199;-73
2021/08/06 07:20:31;;;;;;;6.67;6.17;;;;;;;26.60;42.14;100055.09;5062424;28;20220;-73
2021/08/06 07:22:57;;;;;;;6.27;5.73;;;;;;;26.94;41.86;100062.66;5073463;28;20290;-72
2021/08/06 07:25:23;;;;;;;6.10;5.43;;;;;;;27.70;40.04;100061.69;5064879;28;20222;-73
2021/08/06 07:27:48;;;;;;;6.03;5.20;;;;;;;28.37;38.75;100070.19;5066547;28;20221;-70
2021/08/06 07:30:15;;;;;;;5.97;5.47;;;;;;;26.58;42.43;100057.03;5074405;28;20463;-71
2021/08/06 07:32:40;;;;;;;5.73;5.33;;;;;;;26.47;41.58;100059.59;5066099;28;20268;-71
2021/08/06 07:35:06;;;;;;;5.40;5.10;;;;;;;26.82;41.02;100061.69;5061577;28;20817;-71
2021/08/06 07:37:32;;;;;;;6.30;5.80;;;;;;;25.70;43.86;100065.50;5061180;28;20204;-71
2021/08/06 07:39:57;;;;;;;5.50;5.00;;;;;;;26.78;41.53;100054.81;5076875;28;20431;-73
2021/08/06 07:42:23;;;;;;;5.53;5.10;;;;;;;25.90;43.75;100061.53;5071826;28;20264;-70
2021/08/06 07:44:49;;;;;;;5.67;5.27;;;;;;;26.11;43.37;100059.28;5061059;28;20239;-73
2021/08/06 07:47:14;;;;;;;5.13;4.70;;;;;;;27.37;40.11;100056.97;5066566;28;20478;-71
2021/08/06 07:49:41;;;;;;;5.70;5.30;;;;;;;25.36;44.90;100070.31;5068297;28;20173;-73
2021/08/06 07:52:08;;;;;;;5.60;5.20;;;;;;;26.51;42.70;100056.59;5078251;28;20196;-72
2021/08/06 07:54:33;;;;;;;5.60;5.10;;;;;;;26.22;42.91;100062.09;5081019;28;20407;-69
2021/08/06 07:56:59;;;;;;;8.70;5.87;;;;;;;27.17;40.98;100071.72;5073914;28;20489;-69
2021/08/06 07:59:24;;;;;;;5.07;4.77;;;;;;;26.58;41.57;100066.88;5064551;28;20200;-75
2021/08/06 08:01:50;;;;;;;5.77;5.27;;;;;;;28.62;38.52;100071.88;5060576;28;20185;-71
2021/08/06 08:04:15;;;;;;;5.33;4.83;;;;;;;30.32;35.24;100052.94;5061433;28;20182;-70
2021/08/06 08:06:40;;;;;;;5.30;4.90;;;;;;;29.24;37.33;100065.25;5060267;28;20197;-71
2021/08/06 08:09:06;;;;;;;5.27;4.87;;;;;;;27.85;39.88;100054.34;5068650;28;20208;-71
2021/08/06 08:11:31;;;;;;;5.73;5.23;;;;;;;29.18;38.01;100056.84;5066644;28;20217;-71
2021/08/06 08:13:56;;;;;;;5.50;5.10;;;;;;;26.53;41.67;100060.03;5067029;28;20179;-70
2021/08/06 08:16:22;;;;;;;5.03;4.73;;;;;;;27.14;41.75;100048.72;5080818;28;20566;-73
2021/08/06 08:18:47;;;;;;;5.30;4.90;;;;;;;27.69;40.88;100051.94;5074486;28;20180;-76
2021/08/06 08:21:13;;;;;;;5.57;5.07;;;;;;;26.87;41.80;100048.84;5069869;28;20621;-71
2021/08/06 08:23:38;;;;;;;5.33;4.83;;;;;;;27.58;40.80;100042.97;5061844;28;20538;-71
2021/08/06 08:26:04;;;;;;;5.40;5.00;;;;;;;26.11;44.02;100043.25;5075326;28;20224;-69
2021/08/06 08:28:29;;;;;;;4.93;4.63;;;;;;;27.09;41.95;100037.50;5066077;28;20189;-72
2021/08/06 08:30:54;;;;;;;5.43;4.93;;;;;;;27.30;42.41;100032.41;5060131;28;20189;-70
2021/08/06 08:33:21;;;;;;;5.70;5.30;;;;;;;28.92;38.79;100032.09;5060594;28;20193;-77
2021/08/06 08:35:47;;;;;;;6.53;5.50;;;;;;;27.30;41.24;100031.56;5063539;28;20217;-74
2021/08/06 08:38:13;;;;;;;6.20;5.63;;;;;;;27.68;40.78;100026.13;5074510;28;20549;-72
2021/08/06 08:40:39;;;;;;;6.23;5.70;;;;;;;28.70;38.28;100033.78;5079870;28;20498;-71
2021/08/06 08:43:06;;;;;;;5.40;4.90;;;;;;;29.09;38.48;100034.25;5079834;28;20173;-70
2021/08/06 08:45:31;;;;;;;6.93;6.33;;;;;;;28.18;37.74;100041.25;5066956;28;20455;-72
2021/08/06 08:47:57;;;;;;;5.23;4.83;;;;;;;27.14;39.23;100043.38;5080322;28;20447;-70
2021/08/06 08:50:23;;;;;;;4.70;4.33;;;;;;;26.34;41.71;100043.53;5081363;28;20181;-71
2021/08/06 08:52:48;;;;;;;7.40;6.80;;;;;;;29.94;35.36;100034.66;5077245;28;20453;-70
2021/08/06 08:55:14;;;;;;;4.90;4.50;;;;;;;26.17;40.85;100042.84;5060476;28;20201;-71
2021/08/06 08:57:39;;;;;;;4.70;4.30;;;;;;;27.69;38.22;100033.19;5071197;28;20185;-71
2021/08/06 09:00:07;;;;;;;4.97;4.60;;;;;;;26.88;40.16;100035.34;5063932;28;20189;-72
2021/08/06 09:02:32;;;;;;;4.67;4.37;;;;;;;27.09;39.65;100026.81;5060059;28;20177;-71
2021/08/06 09:05:14;;;;;;;4.30;4.00;;;;;;;27.95;37.75;100029.56;5063299;28;20443;-70
2021/08/06 09:07:40;;;;;;;4.47;4.17;;;;;;;27.46;38.79;100026.84;5063224;28;20213;-70
2021/08/06 09:10:11;;;;;;;5.17;4.77;;;;;;;29.08;35.71;100027.19;5071706;28;20442;-71
2021/08/06 09:12:53;;;;;;;4.97;4.43;;;;;;;26.70;40.24;100017.91;5059748;28;20170;-72
2021/08/06 09:15:41;;;;;;;5.17;4.77;;;;;;;27.91;37.50;100012.84;5074312;28;20441;-71
2021/08/06 09:18:24;;;;;;;4.33;4.03;;;;;;;28.04;38.30;99997.59;5065907;28;20589;-71
2021/08/06 09:20:53;;;;;;;4.40;4.10;;;;;;;26.67;40.36;100016.31;5059742;28;20434;-71
2021/08/06 09:23:43;;;;;;;5.30;4.80;;;;;;;28.08;37.77;100006.28;5059117;28;20464;-70
2021/08/06 09:26:28;;;;;;;3.93;3.70;;;;;;;28.49;37.07;100010.28;5059267;28;20496;-72
2021/08/06 09:29:00;;;;;;;4.40;4.10;;;;;;;28.38;37.15;100008.41;5059592;28;20443;-72
2021/08/06 09:31:26;;;;;;;4.87;4.47;;;;;;;27.56;38.15;100006.47;5059344;28;20450;-71
2021/08/06 09:34:08;;;;;;;4.53;4.23;;;;;;;28.87;36.37;100002.91;5058403;28;20861;-71
2021/08/06 09:36:33;;;;;;;5.50;5.00;;;;;;;29.44;36.25;100003.75;5070308;28;20299;-71
2021/08/06 09:39:13;;;;;;;6.63;4.50;;;;;;;29.94;35.00;100010.47;5058420;28;20424;-72
2021/08/06 09:41:40;;;;;;;4.60;4.17;;;;;;;27.69;38.57;100008.25;5072911;28;20452;-73
2021/08/06 09:44:18;;;;;;;4.67;4.37;;;;;;;27.14;39.67;100013.09;5079255;28;20472;-71
2021/08/06 09:46:44;;;;;;;5.00;4.60;;;;;;;29.42;35.32;99999.47;5066197;28;20471;-72
2021/08/06 09:49:10;;;;;;;4.30;3.97;;;;;;;29.93;34.62;100006.06;5074368;28;20514;-71
2021/08/06 09:51:37;;;;;;;4.60;4.30;;;;;;;27.48;39.27;100008.00;5063113;28;20475;-70
2021/08/06 09:54:17;;;;;;;4.80;4.40;;;;;;;28.48;37.17;100002.34;5065121;28;20507;-73
2021/08/06 09:56:42;;;;;;;4.43;4.13;;;;;;;29.39;35.34;100000.59;5079032;28;20407;-72
2021/08/06 09:59:08;;;;;;;4.90;4.57;;;;;;;28.56;36.59;99994.56;5063747;28;20509;-71
2021/08/06 10:01:33;;;;;;;5.00;4.50;;;;;;;28.71;37.44;99988.03;5058983;28;20182;-70
2021/08/06 10:04:15;;;;;;;4.37;4.07;;;;;;;27.98;37.58;99987.34;5065999;28;20192;-70
2021/08/06 10:06:57;;;;;;;4.67;4.37;;;;;;;29.17;36.38;99983.53;5068667;28;20208;-70
2021/08/06 10:09:22;;;;;;;4.60;4.20;;;;;;;28.16;37.26;99987.78;5060407;28;20412;-70
2021/08/06 10:11:48;;;;;;;4.70;4.30;;;;;;;27.75;38.12;99982.84;5076483;28;20509;-72
2021/08/06 10:14:14;;;;;;;4.80;4.50;;;;;;;29.23;35.79;99974.97;5059199;28;20204;-71
2021/08/06 10:16:39;;;;;;;4.77;4.47;;;;;;;28.36;36.56;99982.69;5065387;28;20189;-71
2021/08/06 10:19:05;;;;;;;4.67;4.37;;;;;;;28.63;37.47;99976.16;5058447;28;20188;-71
2021/08/06 10:21:30;;;;;;;4.83;4.53;;;;;;;29.42;34.97;99978.88;5063521;28;20578;-69
2021/08/06 10:23:56;;;;;;;4.50;4.20;;;;;;;29.00;36.03;99970.59;5057290;28;20251;-71
2021/08/06 10:26:21;;;;;;;4.87;4.57;;;;;;;29.53;34.44;99984.19;5058614;28;20174;-70
2021/08/06 10:28:47;;;;;;;4.80;4.50;;;;;;;27.17;39.52;99976.28;5059379;28;20209;-70
2021/08/06 10:31:21;;;;;;;5.13;4.73;;;;;;;27.62;38.86;99966.84;5058431;28;20173;-72
2021/08/06 10:34:08;;;;;;;4.73;4.43;;;;;;;26.49;40.90;99962.28;5058240;28;20193;-68
2021/08/06 10:36:43;;;;;;;6.13;5.40;;;;;;;27.68;38.94;99975.25;5058279;28;20446;-69
2021/08/06 10:39:30;;;;;;;4.90;4.60;;;;;;;29.11;36.54;99956.31;5058214;28;20415;-69
2021/08/06 10:41:55;;;;;;;4.70;4.40;;;;;;;27.20;39.91;99980.56;5058204;28;20499;-69
2021/08/06 10:44:20;;;;;;;5.20;4.90;;;;;;;28.02;38.43;99964.72;5057965;28;20502;-70
2021/08/06 10:46:57;;;;;;;5.17;4.80;;;;;;;28.31;37.59;99966.97;5057854;28;20464;-70
2021/08/06 10:49:27;;;;;;;5.47;5.07;;;;;;;27.43;39.84;99960.16;5057136;28;20502;-70
2021/08/06 10:52:12;;;;;;;8.00;5.77;;;;;;;27.46;39.82;99961.75;5085811;28;20430;-70
2021/08/06 10:54:37;;;;;;;5.43;5.10;;;;;;;26.22;42.38;99973.94;5088040;28;20423;-70
2021/08/06 10:57:21;;;;;;;6.30;5.87;;;;;;;26.46;41.93;99964.34;5073468;28;20542;-71
2021/08/06 10:59:47;;;;;;;5.77;5.37;;;;;;;25.99;42.90;99969.25;5072420;28;20188;-70
2021/08/06 11:02:37;;;;;;;6.50;6.00;;;;;;;25.51;43.90;99969.75;5068427;28;20459;-70
2021/08/06 11:05:27;;;;;;;6.83;6.23;;;;;;;27.96;39.73;99954.44;5069808;28;20452;-70
2021/08/06 11:07:53;;;;;;;6.23;5.73;;;;;;;27.08;41.22;99962.72;5074394;28;20481;-71
2021/08/06 11:10:46;;;;;;;6.97;6.47;;;;;;;26.62;41.94;99956.09;5057842;28;20412;-70
2021/08/06 11:13:33;;;;;;;6.10;5.70;;;;;;;27.36;40.66;99958.84;5058815;28;20201;-69
2021/08/06 11:16:05;;;;;;;6.80;6.30;;;;;;;27.38;40.57;99948.94;5067573;28;20515;-69
2021/08/06 11:18:32;;;;;;;7.40;6.90;;;;;;;27.22;41.42;99955.41;5059966;28;20464;-68
2021/08/06 11:20:59;;;;;;;7.17;6.63;;;;;;;27.51;39.95;99944.38;5074971;28;20849;-71
2021/08/06 11:23:24;;;;;;;6.87;6.37;;;;;;;27.85;40.10;99936.50;5070909;28;20479;-69
2021/08/06 11:25:51;;;;;;;7.10;6.67;;;;;;;27.92;39.94;99933.38;5069518;28;20854;-70